D/T METAR WX W/DIR W/SPE G/SPE TEMP DEWP
19/03/19 20:50 EGNS 192050Z 27004KT 9999 FEW004 09/08 Q1025 W (270°) 4.6mph 9°C 8°C
19/03/19 20:20 EGNS 192020Z 26005KT 230V300 9999 FEW004 08/08 Q1025 NOSIG W (260°) 5.8mph 8°C 8°C
19/03/19 19:50 EGNS 191950Z VRB02KT 9999 SCT004 09/08 Q1025 N (0°) 2.3mph 9°C 8°C
19/03/19 18:50 EGNS 191850Z 28005KT 240V340 9999 SCT004 SCT012 09/08 Q1025 NOSIG W (280°) 5.8mph 9°C 8°C
19/03/19 18:20 EGNS 191820Z 23010KT 200V260 9999 FEW005 SCT012 BKN033 09/08 Q1024 NOSIG SW (230°) 11.5mph 9°C 8°C
19/03/19 17:20 EGNS 191720Z 24007KT 200V280 9999 FEW005 BKN015 BKN020 10/09 Q1024 NOSIG WSW (240°) 8.1mph 10°C 9°C
19/03/19 16:50 EGNS 191650Z 24010KT 210V270 9999 FEW007 SCT015 BKN020 10/09 Q1024 NOSIG WSW (240°) 11.5mph 10°C 9°C
19/03/19 16:20 EGNS 191620Z 24008KT 210V270 8000 -DZ BKN003 OVC007 09/09 Q1024 NOSIG -DZ WSW (240°) 9.2mph 9°C 9°C
19/03/19 15:50 EGNS 191550Z 24010KT 200V270 9999 FEW003 OVC005 09/08 Q1024 NOSIG WSW (240°) 11.5mph 9°C 8°C
19/03/19 14:50 EGNS 191450Z 22011KT 190V250 7000 -DZ FEW003 OVC005 09/08 Q1024 BECMG BKN010 -DZ SW (220°) 12.7mph 9°C 8°C
19/03/19 14:20 EGNS 191420Z 22012KT 7000 -DZ FEW003 OVC005 09/08 Q1023 BECMG BKN010 -DZ SW (220°) 13.8mph 9°C 8°C
19/03/19 13:50 EGNS 191350Z 22013KT 9999 -DZ FEW003 OVC005 09/08 Q1023 BECMG BKN010 -DZ SW (220°) 15.0mph 9°C 8°C
19/03/19 13:20 EGNS 191320Z 22012KT 9999 FEW002 OVC004 09/08 Q1023 BECMG BKN010 SW (220°) 13.8mph 9°C 8°C
19/03/19 12:50 EGNS 191250Z 22014KT 9999 -DZ FEW002 OVC004 08/08 Q1023 BECMG BKN010 -DZ SW (220°) 16.1mph 8°C 8°C
19/03/19 12:20 EGNS 191220Z 22014KT 4000 -DZ OVC003 08/08 Q1024 BECMG 8000 BKN006 -DZ SW (220°) 16.1mph 8°C 8°C
19/03/19 11:50 EGNS 191150Z 22013KT 3500 -DZ BKN002 OVC004 09/08 Q1024 BECMG 8000 BKN007 -DZ SW (220°) 15.0mph 9°C 8°C
19/03/19 11:20 EGNS 191120Z 22012KT 6000 -DZ BKN006 BKN016 OVC025 09/08 Q1024 TEMPO 9999 NSW -DZ SW (220°) 13.8mph 9°C 8°C
19/03/19 10:50 EGNS 191050Z 23011KT 200V260 9999 9000NW FEW007 BKN017 OVC030 10/08 Q1024 TEMPO 7000 -RADZ BKN008 SW (230°) 12.7mph 10°C 8°C
19/03/19 10:20 EGNS 191020Z 23012KT 200V260 9999 FEW008 SCT024 BKN040 09/08 Q1024 TEMPO 7000 -RADZ BKN008 SW (230°) 13.8mph 9°C 8°C
19/03/19 09:50 EGNS 190950Z 24012KT 210V270 9999 FEW008 BKN030 09/07 Q1024 NOSIG WSW (240°) 13.8mph 9°C 7°C
19/03/19 09:20 EGNS 190920Z 24013KT 210V280 9999 FEW008 BKN042 09/07 Q1024 TEMPO 7000 -RADZ BKN008 WSW (240°) 15.0mph 9°C 7°C
19/03/19 08:50 EGNS 190850Z 24012KT 9999 FEW008 09/07 Q1023 TEMPO 7000 -RADZ BKN008 WSW (240°) 13.8mph 9°C 7°C
19/03/19 08:20 EGNS 190820Z 24010KT 9999 FEW008 08/07 Q1023 NOSIG WSW (240°) 11.5mph 8°C 7°C
19/03/19 07:50 EGNS 190750Z 24008KT 210V270 9999 -RA FEW008 08/07 Q1023 TEMPO 7000 BKN007 -RA WSW (240°) 9.2mph 8°C 7°C
19/03/19 07:20 EGNS 190720Z 24009KT 210V270 9999 FEW006 08/08 Q1023 TEMPO 7000 -RADZ BKN006 WSW (240°) 10.4mph 8°C 8°C
19/03/19 06:50 EGNS 190650Z 25007KT 220V280 9999 FEW005 SCT030 08/08 Q1023 TEMPO 7000 RADZ BKN005 WSW (250°) 8.1mph 8°C 8°C
19/03/19 06:20 EGNS 190620Z 26006KT 230V290 9999 FEW005 OVC030 08/07 Q1023 TEMPO 7000 RADZ BKN007 W (260°) 6.9mph 8°C 7°C
19/03/19 05:50 EGNS 190550Z 27004KT 9999 FEW008 OVC030 08/07 Q1023 REDZ TEMPO 7000 RADZ BKN007 W (270°) 4.6mph 8°C 7°C
19/03/19 05:20 EGNS 190520Z 26006KT 9999 -DZ FEW007 BKN024 OVC030 08/08 Q1023 TEMPO 7000 RADZ BKN007 -DZ W (260°) 6.9mph 8°C 8°C
19/03/19 04:50 EGNS 190450Z 27005KT 9999 -DZ FEW007 OVC024 08/08 Q1023 TEMPO 7000 RADZ BKN007 -DZ W (270°) 5.8mph 8°C 8°C
19/03/19 03:50 EGNS 190350Z 28004KT 9999 BKN016 BKN023 OVC027 08/08 Q1023 W (280°) 4.6mph 8°C 8°C
19/03/19 02:50 EGNS 190250Z 26002KT 9999 BKN016 OVC024 08/08 Q1022 W (260°) 2.3mph 8°C 8°C
19/03/19 01:50 EGNS 190150Z 27003KT 8000 -DZ SCT016 BKN023 BKN035 08/08 Q1023 -DZ W (270°) 3.5mph 8°C 8°C
19/03/19 00:50 EGNS 190050Z 28004KT 9999 FEW018 08/07 Q1022 W (280°) 4.6mph 8°C 7°C
18/03/19 23:50 EGNS 182350Z 30003KT 9999 FEW025 08/07 Q1023 WNW (300°) 3.5mph 8°C 7°C
18/03/19 22:50 EGNS 182250Z 28005KT 9999 FEW025 07/07 Q1022 W (280°) 5.8mph 7°C 7°C
18/03/19 21:50 EGNS 182150Z VRB02KT 9999 FEW010 BKN049 08/07 Q1022 N (0°) 2.3mph 8°C 7°C
18/03/19 20:50 EGNS 182050Z VRB03KT 9999 FEW010 BKN042 08/08 Q1021 NOSIG N (0°) 3.5mph 8°C 8°C
18/03/19 20:20 EGNS 182020Z 27005KT 9999 -SHRA FEW010 BKN040 08/08 Q1021 NOSIG -SHRA W (270°) 5.8mph 8°C 8°C
18/03/19 19:50 EGNS 181950Z 28006KT 250V320 9999 -SHRA FEW010 09/08 Q1021 NOSIG -SHRA W (280°) 6.9mph 9°C 8°C
18/03/19 19:20 EGNS 181920Z 30006KT 270V330 9999 -SHRA FEW010 09/07 Q1021 NOSIG -SHRA WNW (300°) 6.9mph 9°C 7°C
18/03/19 18:50 EGNS 181850Z 29007KT 230V320 9999 FEW010 09/07 Q1020 NOSIG WNW (290°) 8.1mph 9°C 7°C
18/03/19 18:20 EGNS 181820Z 28007KT 250V310 9999 FEW007 SCT046 09/07 Q1020 NOSIG W (280°) 8.1mph 9°C 7°C
18/03/19 17:50 EGNS 181750Z 29009KT 260V320 9999 FEW007 BKN048 09/07 Q1019 NOSIG WNW (290°) 10.4mph 9°C 7°C
18/03/19 17:20 EGNS 181720Z 28008KT 9999 FEW007 BKN045 09/08 Q1019 NOSIG W (280°) 9.2mph 9°C 8°C
18/03/19 16:50 EGNS 181650Z 27006KT 240V300 9999 FEW007 BKN045 09/08 Q1019 TEMPO 6000 SHRA W (270°) 6.9mph 9°C 8°C
18/03/19 16:20 EGNS 181620Z 28010KT 250V310 9999 9000W -SHRA FEW009 10/08 Q1018 NOSIG -SHRA W (280°) 11.5mph 10°C 8°C
18/03/19 15:20 EGNS 181520Z 26008KT 220V310 9999 FEW009 BKN025 10/08 Q1018 RERA NOSIG W (260°) 9.2mph 10°C 8°C
18/03/19 14:20 EGNS 181420Z 25009KT 5000 RADZ BKN009 OVC017 09/08 Q1018 NOSIG RA DZ WSW (250°) 10.4mph 9°C 8°C
18/03/19 13:50 EGNS 181350Z 25010KT 220V290 8000 -RA BKN009 OVC018 08/07 Q1018 BECMG SCT009 -RA WSW (250°) 11.5mph 8°C 7°C
18/03/19 13:20 EGNS 181320Z 24010KT 200V270 9999 -RA BKN009 OVC018 08/07 Q1018 BECMG SCT009 -RA WSW (240°) 11.5mph 8°C 7°C
18/03/19 12:20 EGNS 181220Z 25009KT 220V290 8000 -RA BKN009 OVC020 08/07 Q1018 TEMPO 3000 RADZ BKN006 -RA WSW (250°) 10.4mph 8°C 7°C
18/03/19 11:50 EGNS 181150Z 25011KT 220V280 7000 -RA BKN009 OVC020 08/07 Q1018 TEMPO 3000 RADZ BKN006 -RA WSW (250°) 12.7mph 8°C 7°C
18/03/19 11:20 EGNS 181120Z 25011KT 9999 6000N -RA SCT010 SCT040 08/07 Q1018 NOSIG -RA WSW (250°) 12.7mph 8°C 7°C
18/03/19 10:50 EGNS 181050Z 25011KT 220V280 9999 -RA SCT010 SCT045 08/07 Q1018 NOSIG -RA WSW (250°) 12.7mph 8°C 7°C
18/03/19 10:20 EGNS 181020Z 26011KT 9999 -RA FEW009 BKN040 07/06 Q1018 NOSIG -RA W (260°) 12.7mph 7°C 6°C
18/03/19 09:50 EGNS 180950Z 26011KT 230V290 9999 -RA FEW009 BKN040 07/06 Q1018 NOSIG -RA W (260°) 12.7mph 7°C 6°C
18/03/19 09:20 EGNS 180920Z 27011KT 230V300 9999 -RA FEW014 SCT020 07/05 Q1017 NOSIG -RA W (270°) 12.7mph 7°C 5°C
18/03/19 08:50 EGNS 180850Z 27009KT 9999 -RA FEW015 BKN020 07/05 Q1017 NOSIG -RA W (270°) 10.4mph 7°C 5°C
18/03/19 08:20 EGNS 180820Z 27008KT 240V300 9999 -RA SCT013 BKN024 OVC040 06/05 Q1017 TEMPO 4000 BKN012 -RA W (270°) 9.2mph 6°C 5°C
18/03/19 07:50 EGNS 180750Z 26009KT 220V300 9999 -RA FEW013 SCT020 BKN030 06/05 Q1017 TEMPO 4000 BKN012 -RA W (260°) 10.4mph 6°C 5°C
18/03/19 07:20 EGNS 180720Z 26010KT 9999 FEW012 SCT020 BKN033 06/05 Q1017 TEMPO 4000 RADZ BKN012 W (260°) 11.5mph 6°C 5°C
18/03/19 06:50 EGNS 180650Z 26009KT 230V300 9999 -RA FEW013 SCT025 OVC040 06/04 Q1017 BECMG 8000 BKN009 -RA W (260°) 10.4mph 6°C 4°C
18/03/19 06:20 EGNS 180620Z 26009KT 230V290 9999 -RA FEW014 SCT017 OVC040 06/05 Q1017 BECMG 8000 BKN009 -RA W (260°) 10.4mph 6°C 5°C
18/03/19 05:50 EGNS 180550Z 27008KT 230V310 9999 FEW017 SCT045 07/04 Q1017 NOSIG W (270°) 9.2mph 7°C 4°C
18/03/19 05:20 EGNS 180520Z 27008KT 230V310 9999 FEW017 07/04 Q1017 NOSIG W (270°) 9.2mph 7°C 4°C
18/03/19 04:50 EGNS 180450Z 26011KT 220V290 9999 FEW018 07/04 Q1016 W (260°) 12.7mph 7°C 4°C
18/03/19 03:50 EGNS 180350Z 28011KT 250V310 9999 FEW030 07/04 Q1016 W (280°) 12.7mph 7°C 4°C
18/03/19 02:50 EGNS 180250Z 29015KT 260V320 CAVOK 06/03 Q1016 WNW (290°) 17.3mph 6°C 3°C
18/03/19 00:50 EGNS 180050Z 29008KT 250V350 CAVOK 06/03 Q1016 WNW (290°) 9.2mph 6°C 3°C
17/03/19 23:50 EGNS 172350Z 29011KT 250V330 9999 FEW020 07/03 Q1015 WNW (290°) 12.7mph 7°C 3°C
17/03/19 22:50 EGNS 172250Z 29006KT 250V340 9999 FEW025 07/03 Q1015 WNW (290°) 6.9mph 7°C 3°C
17/03/19 21:50 EGNS 172150Z 31011KT 270V010 9999 FEW025 07/03 Q1014 NW (310°) 12.7mph 7°C 3°C
17/03/19 20:50 EGNS 172050Z 31012KT 9999 FEW025 08/03 Q1013 NOSIG NW (310°) 13.8mph 8°C 3°C
17/03/19 20:20 EGNS 172020Z 32017KT 9999 FEW025 08/03 Q1012 NOSIG NW (320°) 19.6mph 8°C 3°C
17/03/19 19:50 EGNS 171950Z 31018KT 9999 FEW025 08/03 Q1012 NOSIG NW (310°) 20.7mph 8°C 3°C
17/03/19 19:20 EGNS 171920Z 31018KT 9999 FEW026 08/03 Q1011 NOSIG NW (310°) 20.7mph 8°C 3°C
17/03/19 18:50 EGNS 171850Z 32018KT 9999 FEW025 08/03 Q1011 NOSIG NW (320°) 20.7mph 8°C 3°C
17/03/19 18:20 EGNS 171820Z 32020KT 9999 FEW025 08/03 Q1010 NOSIG NW (320°) 23.0mph 8°C 3°C
17/03/19 17:50 EGNS 171750Z 32017KT 280V360 9999 FEW025 08/04 Q1009 NOSIG NW (320°) 19.6mph 8°C 4°C
17/03/19 17:20 EGNS 171720Z 32018KT 280V010 9999 FEW025 08/03 Q1008 NOSIG NW (320°) 20.7mph 8°C 3°C
17/03/19 16:50 EGNS 171650Z 31020G31KT 9999 FEW025 09/03 Q1007 NOSIG NW (310°) 23.0mph 35.7mph 9°C 3°C
17/03/19 16:20 EGNS 171620Z 32025G36KT 9999 FEW020CB 09/04 Q1007 NOSIG NW (320°) 28.8mph 41.4mph 9°C 4°C
17/03/19 15:50 EGNS 171550Z 31027KT 9999 FEW020CB SCT030 09/04 Q1006 RESHRA NOSIG NW (310°) 31.1mph 9°C 4°C
17/03/19 15:20 EGNS 171520Z 31021KT 9999 VCSH FEW020CB 09/05 Q1005 RESHRA NOSIG VCSH NW (310°) 24.2mph 9°C 5°C
17/03/19 14:50 EGNS 171450Z 32023KT 9999 VCSH FEW020CB SCT025 09/03 Q1004 NOSIG VCSH NW (320°) 26.5mph 9°C 3°C
17/03/19 14:20 EGNS 171420Z 30022KT 9999 VCSH FEW017CB 09/03 Q1004 NOSIG VCSH WNW (300°) 25.3mph 9°C 3°C
17/03/19 13:50 EGNS 171350Z 30022G32KT 9999 FEW017CB SCT022 09/04 Q1003 NOSIG WNW (300°) 25.3mph 36.8mph 9°C 4°C
17/03/19 12:50 EGNS 171250Z 29013KT 250V310 9999 FEW017CB SCT020 07/03 Q1003 NOSIG WNW (290°) 15.0mph 7°C 3°C
17/03/19 12:20 EGNS 171220Z 27017KT 9999 SCT017 BKN025 07/03 Q1002 NOSIG W (270°) 19.6mph 7°C 3°C
17/03/19 11:50 EGNS 171150Z 26017KT 9999 FEW014 BKN018 06/03 Q1002 NOSIG W (260°) 19.6mph 6°C 3°C
17/03/19 11:20 EGNS 171120Z 27021KT 9999 -SHRA FEW013 BKN016 BKN040 06/03 Q1002 NOSIG -SHRA W (270°) 24.2mph 6°C 3°C
17/03/19 10:50 EGNS 171050Z 26021KT 9999 FEW014 SCT017 07/03 Q1001 NOSIG W (260°) 24.2mph 7°C 3°C
17/03/19 10:20 EGNS 171020Z 26023KT 9999 FEW014 SCT018 06/03 Q1001 NOSIG W (260°) 26.5mph 6°C 3°C
17/03/19 09:50 EGNS 170950Z 26020KT 9999 FEW017 07/03 Q1001 NOSIG W (260°) 23.0mph 7°C 3°C
17/03/19 09:20 EGNS 170920Z 27019KT 9999 SCT018 06/03 Q1001 NOSIG W (270°) 21.9mph 6°C 3°C
17/03/19 08:50 EGNS 170850Z 27018KT 9999 FEW017 SCT022 05/01 Q1001 NOSIG W (270°) 20.7mph 5°C 1°C
17/03/19 07:50 EGNS 170750Z 28014G24KT 250V310 9999 SCT018 05/01 Q1000 NOSIG W (280°) 16.1mph 27.6mph 5°C 1°C
17/03/19 07:20 EGNS 170720Z 29015KT 250V310 9999 SCT018 05/M00 Q0999 NOSIG WNW (290°) 17.3mph 5°C 0°C
17/03/19 06:50 EGNS 170650Z 28018KT 9999 FEW018 04/M01 Q0999 NOSIG W (280°) 20.7mph 4°C -1°C
17/03/19 06:20 EGNS 170620Z 27017KT 9999 SCT018 04/M00 Q0998 NOSIG W (270°) 19.6mph 4°C 0°C
17/03/19 05:50 EGNS 170550Z 27016KT 9999 FEW015CB SCT020 04/M00 Q0998 NOSIG W (270°) 18.4mph 4°C 0°C
17/03/19 04:50 EGNS 170450Z 28019KT 9999 FEW020 04/M01 Q0997 W (280°) 21.9mph 4°C -1°C
17/03/19 03:50 EGNS 170350Z 28020KT 9999 FEW018 04/00 Q0996 W (280°) 23.0mph 4°C 0°C
17/03/19 01:50 EGNS 170150Z 28021KT 9999 FEW018 05/M00 Q0995 W (280°) 24.2mph 5°C 0°C
17/03/19 00:50 EGNS 170050Z 28017KT 9999 SCT018 05/01 Q0995 W (280°) 19.6mph 5°C 1°C
16/03/19 23:50 EGNS 162350Z 29018KT 9999 SCT018 05/01 Q0994 WNW (290°) 20.7mph 5°C 1°C
16/03/19 22:50 EGNS 162250Z 29019KT 9999 SCT018 05/01 Q0994 WNW (290°) 21.9mph 5°C 1°C
16/03/19 21:50 EGNS 162150Z 29017KT 9999 SCT018 06/02 Q0993 WNW (290°) 19.6mph 6°C 2°C
16/03/19 20:50 EGNS 162050Z 29014KT 250V330 9999 FEW018 05/02 Q0992 NOSIG WNW (290°) 16.1mph 5°C 2°C
16/03/19 20:20 EGNS 162020Z 29015KT 250V320 9999 SCT017 SCT025 06/02 Q0992 NOSIG WNW (290°) 17.3mph 6°C 2°C
16/03/19 19:50 EGNS 161950Z 29015KT 260V350 9999 FEW020 06/01 Q0991 NOSIG WNW (290°) 17.3mph 6°C 1°C
16/03/19 19:20 EGNS 161920Z 30011KT 260V330 9999 SCT018 BKN025 06/02 Q0991 NOSIG WNW (300°) 12.7mph 6°C 2°C
16/03/19 18:50 EGNS 161850Z 30016G26KT 260V340 9999 FEW018 SCT025 05/02 Q0990 NOSIG WNW (300°) 18.4mph 29.9mph 5°C 2°C
16/03/19 18:20 EGNS 161820Z 29014KT 250V330 9999 FEW023 06/02 Q0990 NOSIG WNW (290°) 16.1mph 6°C 2°C
16/03/19 17:20 EGNS 161720Z 29019KT 250V330 9999 SCT023 07/02 Q0989 NOSIG WNW (290°) 21.9mph 7°C 2°C
16/03/19 16:50 EGNS 161650Z 30019G29KT 260V340 9999 SCT023 07/01 Q0988 NOSIG WNW (300°) 21.9mph 33.4mph 7°C 1°C
16/03/19 15:50 EGNS 161550Z 28018KT 9999 SCT018 SCT040 07/03 Q0987 NOSIG W (280°) 20.7mph 7°C 3°C
16/03/19 15:20 EGNS 161520Z 27023KT 9999 FEW014 SCT018 BKN045 08/04 Q0986 NOSIG W (270°) 26.5mph 8°C 4°C
16/03/19 14:50 EGNS 161450Z 25024KT 9999 FEW014 BKN040 09/06 Q0985 NOSIG WSW (250°) 27.6mph 9°C 6°C
16/03/19 14:20 EGNS 161420Z 23024KT 9999 FEW014 SCT018 BKN037 10/08 Q0985 BECMG 29020G30KT SW (230°) 27.6mph 10°C 8°C
16/03/19 13:50 EGNS 161350Z 22022KT 9999 SCT010 BKN025 10/09 Q0985 BECMG 29020G30KT SW (220°) 25.3mph 10°C 9°C
16/03/19 13:20 EGNS 161320Z 21024KT 9000 SCT008 BKN018 BKN035 10/09 Q0985 TEMPO 4000 RA BKN008 SSW (210°) 27.6mph 10°C 9°C
16/03/19 12:50 EGNS 161250Z 21027KT 6000 -RADZ BKN007 BKN022 10/09 Q0985 TEMPO 4000 RA -RA -DZ SSW (210°) 31.1mph 10°C 9°C
16/03/19 12:20 EGNS 161220Z 21029KT 9999 -RA SCT008 BKN035 10/09 Q0986 TEMPO 4000 RA BKN008 -RA SSW (210°) 33.4mph 10°C 9°C
16/03/19 11:50 EGNS 161150Z 21030KT 9999 SCT008 BKN033 10/09 Q0986 TEMPO 4000 RA BKN008 SSW (210°) 34.5mph 10°C 9°C
16/03/19 11:20 EGNS 161120Z 21028KT 9000 BKN007 BKN030 10/09 Q0986 TEMPO 9999 SCT007 SSW (210°) 32.2mph 10°C 9°C
16/03/19 10:50 EGNS 161050Z 21028KT 9000 -RA BKN007 BKN032 OVC045 10/09 Q0987 TEMPO 4000 RA -RA SSW (210°) 32.2mph 10°C 9°C
16/03/19 10:20 EGNS 161020Z 21029KT 6000 RA SCT007 BKN030 10/09 Q0988 TEMPO 4000 BKN007 RA SSW (210°) 33.4mph 10°C 9°C
16/03/19 09:50 EGNS 160950Z 21029G39KT 6000 RA SCT008 OVC028 10/09 Q0988 TEMPO BKN008 RA SSW (210°) 33.4mph 44.9mph 10°C 9°C
16/03/19 09:20 EGNS 160920Z 21029KT 4500 RA SCT008 OVC028 10/09 Q0988 TEMPO BKN008 RA SSW (210°) 33.4mph 10°C 9°C
16/03/19 08:50 EGNS 160850Z 21029G39KT 4500 RA SCT008 OVC025 10/09 Q0989 TEMPO BKN008 RA SSW (210°) 33.4mph 44.9mph 10°C 9°C
16/03/19 08:20 EGNS 160820Z 21027KT 5000 -RA FEW008 OVC027 10/09 Q0989 TEMPO BKN008 -RA SSW (210°) 31.1mph 10°C 9°C
16/03/19 07:50 EGNS 160750Z 21027KT 4000 -RA BKN007 OVC025 10/09 Q0990 TEMPO SCT007 -RA SSW (210°) 31.1mph 10°C 9°C
16/03/19 07:20 EGNS 160720Z 21026KT 5000 -RA BKN007 OVC022 10/09 Q0990 RERA TEMPO SCT007 -RA SSW (210°) 29.9mph 10°C 9°C
16/03/19 06:50 EGNS 160650Z 21026KT 4000 RA FEW005 BKN007 OVC020 10/09 Q0991 TEMPO 6000 BKN005 RA SSW (210°) 29.9mph 10°C 9°C
16/03/19 06:20 EGNS 160620Z 21024KT 5000 RA FEW004 SCT006 OVC020 10/09 Q0991 TEMPO 3000 BKN006 RA SSW (210°) 27.6mph 10°C 9°C
16/03/19 05:20 EGNS 160520Z 19008KT 110V220 9000 -RA SCT004 OVC006 08/07 Q0993 TEMPO 3000 BKN004 -RA S (190°) 9.2mph 8°C 7°C
16/03/19 04:50 EGNS 160450Z 07012KT 040V100 4000 RA SCT005 OVC010 06/06 Q0994 RA ENE (70°) 13.8mph 6°C 6°C
16/03/19 03:50 EGNS 160350Z 10014KT 5000 RA BKN003 OVC005 06/05 Q0996 RA E (100°) 16.1mph 6°C 5°C
16/03/19 02:50 EGNS 160250Z 10014KT 8000 RA SCT004 OVC006 05/05 Q0998 RA E (100°) 16.1mph 5°C 5°C
16/03/19 01:50 EGNS 160150Z 06004KT 9999 RA BKN018 OVC027 05/04 Q1000 RA ENE (60°) 4.6mph 5°C 4°C
16/03/19 00:50 EGNS 160050Z 04003KT 8000 RA SCT016 OVC025 05/04 Q1002 RA NE (40°) 3.5mph 5°C 4°C
15/03/19 23:50 EGNS 152350Z 29003KT 9000 RA BKN014 OVC025 05/04 Q1003 RA WNW (290°) 3.5mph 5°C 4°C